createdAt,value
2023-05-12T00:00:31.398Z,5.75
2023-05-12T00:02:33.731Z,6.32
2023-05-12T00:04:36.755Z,4.50
2023-05-12T00:06:39.068Z,4.75
2023-05-12T00:08:41.263Z,4.82
2023-05-12T00:10:43.495Z,7.47
2023-05-12T00:12:45.809Z,5.00
2023-05-12T00:14:48.011Z,5.30
2023-05-12T00:16:52.027Z,10.52
2023-05-12T00:18:54.460Z,7.03
2023-05-12T00:20:56.887Z,6.57
2023-05-12T00:22:59.056Z,6.10
2023-05-12T00:25:01.277Z,6.15
2023-05-12T00:27:03.489Z,6.78
2023-05-12T00:29:05.817Z,8.75
2023-05-12T00:31:08.033Z,8.38
2023-05-12T00:33:10.294Z,8.50
2023-05-12T00:35:12.432Z,7.57
2023-05-12T00:37:14.650Z,9.57
2023-05-12T00:39:16.829Z,8.48
2023-05-12T00:41:19.045Z,8.80
2023-05-12T00:43:21.307Z,9.10
2023-05-12T00:45:23.835Z,7.85
2023-05-12T00:47:26.203Z,9.38
2023-05-12T00:49:28.526Z,8.57
2023-05-12T00:51:31.040Z,8.93
2023-05-12T00:53:45.493Z,9.23
2023-05-12T00:55:51.904Z,9.93
2023-05-12T00:57:54.174Z,12.32
2023-05-12T00:59:56.550Z,10.38
2023-05-12T01:01:59.258Z,9.60
2023-05-12T01:06:12.814Z,12.27
2023-05-12T01:08:15.094Z,11.32
2023-05-12T01:10:21.236Z,9.85
2023-05-12T01:12:24.720Z,9.25
2023-05-12T01:14:27.050Z,9.57
2023-05-12T01:16:32.265Z,10.73
2023-05-12T01:18:36.104Z,9.77
2023-05-12T01:20:38.737Z,9.98
2023-05-12T01:22:41.372Z,9.98
2023-05-12T01:24:51.455Z,11.90
2023-05-12T01:26:53.813Z,10.50
2023-05-12T01:28:56.719Z,10.75
2023-05-12T01:30:59.534Z,9.65
2023-05-12T01:33:02.325Z,9.45
2023-05-12T01:37:06.542Z,9.40
2023-05-12T01:39:08.869Z,14.07
2023-05-12T01:41:11.133Z,10.32
2023-05-12T01:43:13.312Z,10.77
2023-05-12T01:45:15.721Z,11.25
2023-05-12T01:47:17.987Z,9.75
2023-05-12T01:49:20.264Z,12.10
2023-05-12T01:51:22.464Z,9.27
2023-05-12T01:53:24.608Z,10.95
2023-05-12T01:55:26.904Z,11.98
2023-05-12T01:57:29.184Z,11.23
2023-05-12T01:59:31.337Z,13.10
2023-05-12T02:01:33.568Z,10.88
2023-05-12T02:03:37.964Z,11.68
2023-05-12T02:05:40.389Z,11.48
2023-05-12T02:07:42.672Z,10.05
2023-05-12T02:09:44.811Z,10.15
2023-05-12T02:11:46.966Z,11.02
2023-05-12T02:13:49.218Z,9.25
2023-05-12T02:15:51.600Z,9.48
2023-05-12T02:17:54.545Z,8.23
2023-05-12T02:19:56.820Z,9.10
2023-05-12T02:21:59.164Z,9.65
2023-05-12T02:24:01.349Z,10.48
2023-05-12T02:26:03.632Z,8.82
2023-05-12T02:28:08.085Z,10.95
2023-05-12T02:30:10.363Z,9.32
2023-05-12T02:32:12.616Z,9.30
2023-05-12T02:34:14.926Z,10.50
2023-05-12T02:36:17.221Z,10.10
2023-05-12T02:38:19.450Z,10.55
2023-05-12T02:40:21.827Z,11.35
2023-05-12T02:42:24.124Z,8.98
2023-05-12T02:44:26.459Z,11.48
2023-05-12T02:46:28.651Z,12.30
2023-05-12T02:48:30.861Z,10.40
2023-05-12T02:50:33.062Z,10.02
2023-05-12T02:52:35.297Z,9.63
2023-05-12T02:54:37.573Z,12.32
2023-05-12T02:56:39.757Z,10.23
2023-05-12T02:58:42.557Z,13.52
2023-05-12T03:00:44.720Z,12.70
2023-05-12T03:02:47.061Z,14.32
2023-05-12T03:04:49.333Z,15.77
2023-05-12T03:06:51.789Z,13.45
2023-05-12T03:08:55.786Z,12.20
2023-05-12T03:10:58.064Z,12.68
2023-05-12T03:13:00.374Z,13.80
2023-05-12T03:15:03.282Z,13.68
2023-05-12T03:17:05.633Z,13.23
2023-05-12T03:19:07.890Z,13.15
2023-05-12T03:21:10.071Z,13.90
2023-05-12T03:23:12.261Z,11.75
2023-05-12T03:25:14.645Z,12.60
2023-05-12T03:27:16.743Z,12.82
2023-05-12T03:29:18.990Z,16.23
2023-05-12T03:31:21.191Z,11.63
2023-05-12T03:33:24.587Z,11.60
2023-05-12T03:35:27.026Z,12.57
2023-05-12T03:37:29.278Z,13.30
2023-05-12T03:39:31.746Z,12.20
2023-05-12T03:41:33.994Z,12.20
2023-05-12T03:43:36.231Z,15.15
2023-05-12T03:45:38.487Z,12.15
2023-05-12T03:47:41.094Z,13.75
2023-05-12T03:51:45.419Z,13.25
2023-05-12T03:53:47.893Z,12.57
2023-05-12T03:55:50.077Z,14.50
2023-05-12T03:57:52.240Z,12.77
2023-05-12T03:59:54.409Z,12.70
2023-05-12T04:01:56.675Z,12.35
2023-05-12T04:03:58.894Z,11.38
2023-05-12T04:06:04.517Z,13.98
2023-05-12T04:08:06.742Z,11.32
2023-05-12T04:10:09.297Z,11.73
2023-05-12T04:12:11.522Z,12.18
2023-05-12T04:14:13.726Z,13.32
2023-05-12T04:16:16.157Z,11.98
2023-05-12T04:18:18.746Z,11.13
2023-05-12T04:20:21.345Z,12.70
2023-05-12T04:22:25.589Z,11.98
2023-05-12T04:24:28.064Z,11.80
2023-05-12T04:26:30.274Z,12.07
2023-05-12T04:28:32.439Z,11.55
2023-05-12T04:30:34.607Z,13.65
2023-05-12T04:32:36.781Z,12.02
2023-05-12T04:34:39.073Z,13.35
2023-05-12T04:36:41.233Z,11.05
2023-05-12T04:38:43.432Z,12.52
2023-05-12T04:40:45.749Z,13.20
2023-05-12T04:42:47.921Z,11.85
2023-05-12T04:44:50.061Z,12.55
2023-05-12T04:46:56.044Z,12.68
2023-05-12T04:48:58.211Z,10.60
2023-05-12T04:51:00.705Z,12.27
2023-05-12T04:53:02.840Z,11.23
2023-05-12T04:55:05.548Z,10.60
2023-05-12T04:59:11.612Z,11.27
2023-05-12T05:01:13.976Z,12.35
2023-05-12T05:03:16.463Z,11.50
2023-05-12T05:05:19.066Z,11.02
2023-05-12T05:07:21.618Z,12.98
2023-05-12T05:09:23.749Z,12.63
2023-05-12T05:11:26.001Z,10.05
2023-05-12T05:13:28.211Z,11.93
2023-05-12T05:15:30.385Z,12.05
2023-05-12T05:17:32.687Z,9.30
2023-05-12T05:19:44.512Z,9.77
2023-05-12T05:21:54.578Z,10.10
2023-05-12T05:23:56.758Z,9.50
2023-05-12T05:25:59.026Z,9.30
2023-05-12T05:28:01.167Z,10.07
2023-05-12T05:30:03.342Z,9.50
2023-05-12T05:32:05.777Z,11.38
2023-05-12T05:34:07.973Z,9.55
2023-05-12T05:36:10.216Z,10.98
2023-05-12T05:38:13.090Z,9.32
2023-05-12T05:40:15.252Z,9.68
2023-05-12T05:42:17.718Z,10.10
2023-05-12T05:44:19.893Z,10.73
2023-05-12T05:46:22.130Z,10.10
2023-05-12T05:48:25.272Z,9.52
2023-05-12T05:50:27.780Z,10.55
2023-05-12T05:52:29.951Z,8.88
2023-05-12T05:54:32.099Z,9.95
2023-05-12T05:56:36.000Z,10.40
2023-05-12T05:58:38.301Z,9.38
2023-05-12T06:00:40.502Z,9.52
2023-05-12T06:02:43.646Z,10.18
2023-05-12T06:04:46.196Z,11.40
2023-05-12T06:06:48.335Z,8.93
2023-05-12T06:08:50.534Z,9.70
2023-05-12T06:10:52.726Z,10.05
2023-05-12T06:12:54.889Z,9.80
2023-05-12T06:14:57.055Z,9.50
2023-05-12T06:16:59.571Z,8.18
2023-05-12T06:19:01.831Z,8.80
2023-05-12T06:21:04.669Z,10.02
2023-05-12T06:23:06.908Z,8.93
2023-05-12T06:25:09.501Z,7.97
2023-05-12T06:27:11.735Z,7.70
2023-05-12T06:29:15.220Z,9.98
2023-05-12T06:31:17.486Z,7.75
2023-05-12T06:33:19.690Z,8.43
2023-05-12T06:35:21.952Z,8.50
2023-05-12T06:37:24.337Z,7.60
2023-05-12T06:39:26.749Z,8.00
2023-05-12T06:41:29.035Z,8.48
2023-05-12T06:43:31.207Z,7.82
2023-05-12T06:45:33.493Z,8.40
2023-05-12T06:47:35.727Z,7.40
2023-05-12T06:49:38.768Z,7.30
2023-05-12T06:51:41.030Z,7.60
2023-05-12T06:53:43.231Z,6.85
2023-05-12T06:55:46.422Z,6.13
2023-05-12T06:57:48.687Z,5.72
2023-05-12T06:59:50.848Z,5.80
2023-05-12T07:01:53.148Z,5.57
2023-05-12T07:03:55.540Z,5.78
2023-05-12T07:05:57.905Z,4.60
2023-05-12T07:08:00.053Z,5.05
2023-05-12T07:10:02.251Z,4.88
2023-05-12T07:12:05.421Z,5.00
2023-05-12T07:14:07.625Z,4.68
2023-05-12T07:16:09.855Z,6.45
2023-05-12T07:18:12.093Z,4.82
2023-05-12T07:20:14.329Z,4.50
2023-05-12T07:22:16.569Z,4.95
2023-05-12T07:24:18.732Z,4.25
2023-05-12T07:26:24.172Z,3.58
2023-05-12T07:28:26.368Z,3.65
2023-05-12T07:30:28.530Z,3.70
2023-05-12T07:32:30.844Z,3.72
2023-05-12T07:34:33.876Z,3.55
2023-05-12T07:36:36.124Z,5.20
2023-05-12T07:38:38.368Z,5.25
2023-05-12T07:40:40.531Z,3.63
2023-05-12T07:42:42.771Z,3.47
2023-05-12T07:44:45.621Z,4.45
2023-05-12T07:46:47.863Z,3.53
2023-05-12T07:48:50.721Z,3.53
2023-05-12T07:50:53.118Z,3.72
2023-05-12T07:52:55.408Z,3.95
2023-05-12T07:54:57.825Z,4.95
2023-05-12T07:57:00.610Z,3.55
2023-05-12T08:01:06.807Z,2.90
2023-05-12T08:03:09.203Z,2.95
2023-05-12T08:05:11.845Z,2.90
2023-05-12T08:07:14.094Z,8.65
2023-05-12T08:09:16.234Z,7.35
2023-05-12T08:11:18.478Z,3.60
2023-05-12T08:13:20.811Z,2.70
2023-05-12T08:15:23.001Z,2.70
2023-05-12T08:17:27.088Z,2.50
2023-05-12T08:19:31.275Z,2.38
2023-05-12T08:21:33.422Z,2.40
2023-05-12T08:23:37.744Z,2.90
2023-05-12T08:25:41.270Z,3.95
2023-05-12T08:27:43.482Z,1.92
2023-05-12T08:29:45.790Z,2.53
2023-05-12T08:31:47.966Z,2.70
2023-05-12T08:34:02.739Z,2.47
2023-05-12T08:36:11.459Z,2.40
2023-05-12T08:38:13.702Z,1.95
2023-05-12T08:40:18.712Z,2.47
2023-05-12T08:42:26.637Z,2.00
2023-05-12T08:44:29.270Z,1.60
2023-05-12T08:46:32.430Z,1.75
2023-05-12T08:48:35.566Z,1.70
2023-05-12T08:50:39.074Z,1.65
2023-05-12T08:52:41.345Z,1.80
2023-05-12T08:54:55.064Z,1.50
2023-05-12T08:59:05.380Z,1.50
2023-05-12T09:01:08.040Z,1.88
2023-05-12T09:03:13.355Z,3.47
2023-05-12T09:05:15.724Z,1.63
2023-05-12T09:07:19.423Z,2.13
2023-05-12T09:09:21.866Z,1.05
2023-05-12T09:11:24.109Z,1.23
2023-05-12T09:13:29.377Z,1.23
2023-05-12T09:15:40.070Z,1.20
2023-05-12T09:17:42.372Z,1.73
2023-05-12T09:19:44.593Z,1.70
2023-05-12T09:21:46.810Z,1.30
2023-05-12T09:23:54.946Z,1.60
2023-05-12T09:26:03.887Z,1.35
2023-05-12T09:28:06.218Z,1.50
2023-05-12T09:30:08.737Z,1.10
2023-05-12T09:32:11.041Z,1.08
2023-05-12T09:34:13.202Z,2.17
2023-05-12T09:36:19.425Z,2.33
2023-05-12T09:38:21.614Z,1.02
2023-05-12T09:40:23.782Z,2.03
2023-05-12T09:42:27.845Z,1.33
2023-05-12T09:44:30.910Z,2.38
2023-05-12T09:46:33.608Z,1.67
2023-05-12T09:50:48.668Z,3.90
2023-05-12T09:52:52.152Z,3.35
2023-05-12T09:54:54.414Z,1.20
2023-05-12T09:57:01.623Z,1.30
2023-05-12T09:59:04.784Z,0.90
2023-05-12T10:01:21.610Z,0.93
2023-05-12T10:03:25.093Z,1.45
2023-05-12T10:05:28.325Z,0.80
2023-05-12T10:07:31.389Z,1.40
2023-05-12T10:09:36.799Z,3.20
2023-05-12T10:11:39.129Z,3.53
2023-05-12T10:13:41.543Z,1.90
2023-05-12T10:15:43.814Z,1.63
2023-05-12T10:17:46.438Z,1.73
2023-05-12T10:19:49.847Z,1.58
2023-05-12T10:21:52.404Z,1.55
2023-05-12T10:23:55.401Z,4.15
2023-05-12T10:26:02.452Z,3.65
2023-05-12T10:28:05.781Z,1.58
2023-05-12T10:30:08.562Z,1.60
2023-05-12T10:34:18.699Z,1.23
2023-05-12T10:36:20.969Z,1.15
2023-05-12T10:38:23.245Z,1.33
2023-05-12T10:40:26.715Z,1.40
2023-05-12T10:42:28.909Z,2.10
2023-05-12T10:44:31.035Z,1.42
2023-05-12T10:46:33.269Z,1.10
2023-05-12T10:48:37.922Z,2.75
2023-05-12T10:50:53.456Z,1.10
2023-05-12T10:52:56.121Z,1.77
2023-05-12T10:55:02.190Z,0.98
2023-05-12T10:57:16.055Z,2.65
2023-05-12T10:59:27.512Z,2.03
2023-05-12T11:01:30.743Z,0.70
2023-05-12T11:03:37.269Z,1.42
2023-05-12T11:05:40.779Z,0.55
2023-05-12T11:07:48.156Z,2.00
2023-05-12T11:09:58.425Z,1.17
2023-05-12T11:12:02.846Z,0.88
2023-05-12T11:14:05.228Z,0.77
2023-05-12T11:16:07.752Z,1.20
2023-05-12T11:18:10.093Z,0.60
2023-05-12T11:20:23.013Z,1.10
2023-05-12T11:22:25.257Z,1.00
2023-05-12T11:24:27.395Z,0.90
2023-05-12T11:26:30.058Z,0.80
2023-05-12T11:28:41.484Z,1.25
2023-05-12T11:30:52.562Z,1.08
2023-05-12T11:33:03.689Z,0.93
2023-05-12T11:35:24.353Z,0.93
2023-05-12T11:37:26.500Z,0.80
2023-05-12T11:39:32.746Z,0.85
2023-05-12T11:41:34.896Z,1.10
2023-05-12T11:43:37.102Z,0.70
2023-05-12T11:45:39.491Z,0.70
2023-05-12T11:47:41.739Z,1.00
2023-05-12T11:49:54.787Z,1.67
2023-05-12T11:52:00.679Z,0.90
2023-05-12T11:54:02.904Z,0.75
2023-05-12T11:56:05.164Z,3.08
2023-05-12T11:58:07.404Z,1.20
2023-05-12T12:00:09.898Z,1.48
2023-05-12T12:02:20.257Z,1.38
2023-05-12T12:04:35.352Z,0.93
2023-05-12T12:06:43.936Z,0.88
2023-05-12T12:08:52.031Z,1.88
2023-05-12T12:10:54.177Z,1.88
2023-05-12T12:12:56.307Z,1.30
2023-05-12T12:15:00.379Z,1.10
2023-05-12T12:17:03.006Z,0.70
2023-05-12T12:19:06.074Z,0.85
2023-05-12T12:21:08.353Z,0.60
2023-05-12T12:23:10.534Z,1.00
2023-05-12T12:25:12.708Z,0.90
2023-05-12T12:27:14.872Z,1.00
2023-05-12T12:29:17.554Z,0.90
2023-05-12T12:31:19.802Z,0.90
2023-05-12T12:33:22.118Z,2.03
2023-05-12T12:35:24.555Z,2.08
2023-05-12T12:37:26.703Z,2.20
2023-05-12T12:39:28.978Z,2.20
2023-05-12T12:41:31.199Z,2.28
2023-05-12T12:43:33.373Z,2.40
2023-05-12T12:45:35.561Z,2.22
2023-05-12T12:47:39.050Z,2.03
2023-05-12T12:49:41.337Z,2.83
2023-05-12T12:51:46.895Z,2.10
2023-05-12T12:53:49.472Z,2.95
2023-05-12T12:55:51.793Z,1.90
2023-05-12T12:57:53.988Z,2.03
2023-05-12T12:59:56.191Z,2.53
2023-05-12T13:02:00.042Z,2.03
2023-05-12T13:04:02.405Z,2.13
2023-05-12T13:06:04.717Z,2.45
2023-05-12T13:08:07.202Z,2.20
2023-05-12T13:10:10.041Z,2.10
2023-05-12T13:12:12.532Z,1.90
2023-05-12T13:14:14.778Z,2.00
2023-05-12T13:16:17.094Z,2.78
2023-05-12T13:18:19.386Z,2.55
2023-05-12T13:20:21.888Z,2.28
2023-05-12T13:24:27.992Z,3.25
2023-05-12T13:26:30.141Z,3.55
2023-05-12T13:28:32.282Z,5.18
2023-05-12T13:30:34.832Z,4.70
2023-05-12T13:32:37.081Z,5.35
2023-05-12T13:34:39.416Z,5.85
2023-05-12T13:36:41.678Z,5.57
2023-05-12T13:38:43.893Z,7.22
2023-05-12T13:40:46.379Z,6.10
2023-05-12T13:42:48.595Z,6.82
2023-05-12T13:44:50.826Z,6.28
2023-05-12T13:46:52.920Z,6.90
2023-05-12T13:48:55.092Z,6.93
2023-05-12T13:50:57.631Z,6.65
2023-05-12T13:52:59.879Z,9.52
2023-05-12T13:55:02.094Z,8.60
2023-05-12T13:57:04.552Z,7.72
2023-05-12T13:59:06.740Z,6.18
2023-05-12T14:01:09.140Z,6.68
2023-05-12T14:03:11.501Z,5.35
2023-05-12T14:05:13.785Z,5.72
2023-05-12T14:07:15.957Z,5.15
2023-05-12T14:09:18.165Z,5.47
2023-05-12T14:11:20.343Z,5.45
2023-05-12T14:13:24.222Z,6.90
2023-05-12T14:15:36.469Z,5.75
2023-05-12T14:17:46.772Z,5.80
2023-05-12T14:19:48.937Z,7.63
2023-05-12T14:21:51.080Z,7.43
2023-05-12T14:23:53.299Z,7.68
2023-05-12T14:25:55.619Z,7.25
2023-05-12T14:27:58.032Z,7.95
2023-05-12T14:30:00.505Z,7.20
2023-05-12T14:32:04.401Z,7.25
2023-05-12T14:34:09.095Z,6.13
2023-05-12T14:36:11.285Z,5.68
2023-05-12T14:38:13.501Z,7.38
2023-05-12T14:40:15.907Z,5.28
2023-05-12T14:42:19.956Z,5.32
2023-05-12T14:44:22.089Z,9.10
2023-05-12T14:46:25.630Z,5.30
2023-05-12T14:48:28.292Z,7.03
2023-05-12T14:50:30.558Z,5.38
2023-05-12T14:52:38.185Z,5.07
2023-05-12T14:54:40.369Z,4.60
2023-05-12T14:56:42.612Z,4.78
2023-05-12T14:58:44.759Z,4.95
2023-05-12T15:00:47.577Z,4.97
2023-05-12T15:02:49.924Z,4.97
2023-05-12T15:04:52.140Z,5.90
2023-05-12T15:06:54.362Z,5.30
2023-05-12T15:08:56.503Z,5.72
2023-05-12T15:10:58.707Z,4.68
2023-05-12T15:13:01.028Z,5.85
2023-05-12T15:15:05.246Z,5.00
2023-05-12T15:17:07.579Z,4.30
2023-05-12T15:19:10.063Z,5.35
2023-05-12T15:21:12.277Z,6.22
2023-05-12T15:23:14.543Z,11.48
2023-05-12T15:25:16.692Z,9.20
2023-05-12T15:27:18.844Z,4.88
2023-05-12T15:29:21.543Z,7.43
2023-05-12T15:33:26.109Z,5.68
2023-05-12T15:35:28.332Z,5.18
2023-05-12T15:37:30.524Z,5.63
2023-05-12T15:39:32.695Z,5.20
2023-05-12T15:41:34.874Z,5.60
2023-05-12T15:43:39.012Z,7.18
2023-05-12T15:45:41.282Z,6.05
2023-05-12T15:47:43.463Z,5.70
2023-05-12T15:49:49.064Z,5.18
2023-05-12T15:51:51.270Z,5.43
2023-05-12T15:53:53.696Z,5.65
2023-05-12T15:56:02.444Z,6.47
2023-05-12T15:58:05.456Z,6.88
2023-05-12T16:00:07.967Z,6.40
2023-05-12T16:02:10.280Z,5.53
2023-05-12T16:04:13.076Z,6.72
2023-05-12T16:06:15.301Z,5.45
2023-05-12T16:08:17.721Z,5.90
2023-05-12T16:10:19.916Z,5.82
2023-05-12T16:12:22.059Z,6.22
2023-05-12T16:14:25.441Z,6.97
2023-05-12T16:16:27.765Z,6.25
2023-05-12T16:18:31.197Z,6.72
2023-05-12T16:20:33.693Z,6.22
2023-05-12T16:22:35.899Z,5.90
2023-05-12T16:24:38.088Z,7.10
2023-05-12T16:26:41.234Z,6.55
2023-05-12T16:28:43.727Z,6.78
2023-05-12T16:30:46.099Z,5.93
2023-05-12T16:32:48.380Z,6.68
2023-05-12T16:34:50.678Z,8.05
2023-05-12T16:36:53.133Z,6.30
2023-05-12T16:38:55.548Z,5.82
2023-05-12T16:40:57.749Z,6.70
2023-05-12T16:42:59.964Z,7.85
2023-05-12T16:45:02.176Z,6.40
2023-05-12T16:47:04.471Z,6.72
2023-05-12T16:49:06.638Z,7.00
2023-05-12T16:51:10.279Z,6.30
2023-05-12T16:53:12.483Z,6.93
2023-05-12T16:55:14.615Z,7.25
2023-05-12T16:57:16.922Z,7.65
2023-05-12T16:59:19.146Z,8.80
2023-05-12T17:01:21.412Z,7.05
2023-05-12T17:03:23.837Z,7.30
2023-05-12T17:07:28.546Z,7.28
2023-05-12T17:09:30.760Z,8.15
2023-05-12T17:11:32.929Z,7.10
2023-05-12T17:13:38.397Z,6.10
2023-05-12T17:15:40.719Z,6.38
2023-05-12T17:17:42.926Z,6.80
2023-05-12T17:19:45.272Z,4.80
2023-05-12T17:21:47.551Z,5.18
2023-05-12T17:23:49.748Z,4.32
2023-05-12T17:25:52.427Z,4.72
2023-05-12T17:27:54.855Z,5.32
2023-05-12T17:29:59.707Z,4.00
2023-05-12T17:32:02.133Z,4.35
2023-05-12T17:34:04.311Z,3.70
2023-05-12T17:36:12.362Z,4.45
2023-05-12T17:38:15.231Z,3.97
2023-05-12T17:40:18.044Z,3.75
2023-05-12T17:42:20.275Z,4.03
2023-05-12T17:44:22.410Z,4.72
2023-05-12T17:46:24.717Z,2.92
2023-05-12T17:48:26.967Z,3.35
2023-05-12T17:50:29.155Z,3.97
2023-05-12T17:52:31.346Z,3.95
2023-05-12T17:54:33.695Z,3.85
2023-05-12T17:56:36.548Z,3.95
2023-05-12T17:58:38.698Z,4.47
2023-05-12T18:00:41.063Z,5.45
2023-05-12T18:02:43.550Z,4.25
2023-05-12T18:04:46.216Z,4.60
2023-05-12T18:06:50.147Z,4.35
2023-05-12T18:08:52.410Z,4.43
2023-05-12T18:10:54.630Z,4.60
2023-05-12T18:12:56.967Z,4.47
2023-05-12T18:14:59.124Z,4.13
2023-05-12T18:17:01.441Z,4.32
2023-05-12T18:19:04.073Z,3.95
2023-05-12T18:21:06.465Z,4.65
2023-05-12T18:23:08.638Z,4.13
2023-05-12T18:25:12.774Z,4.70
2023-05-12T18:27:14.979Z,5.68
2023-05-12T18:29:17.423Z,5.03
2023-05-12T18:31:20.088Z,4.75
2023-05-12T18:35:25.046Z,4.72
2023-05-12T18:37:27.389Z,4.75
2023-05-12T18:39:29.604Z,4.97
2023-05-12T18:41:31.765Z,4.72
2023-05-12T18:43:34.974Z,7.32
2023-05-12T18:45:37.603Z,5.05
2023-05-12T18:47:39.892Z,4.50
2023-05-12T18:49:42.357Z,5.28
2023-05-12T18:51:44.554Z,5.28
2023-05-12T18:53:47.777Z,5.45
2023-05-12T18:55:50.381Z,5.65
2023-05-12T18:57:52.592Z,5.25
2023-05-12T18:59:54.754Z,5.75
2023-05-12T19:01:57.011Z,6.03
2023-05-12T19:03:59.232Z,5.60
2023-05-12T19:06:01.445Z,5.70
2023-05-12T19:08:03.792Z,6.55
2023-05-12T19:10:06.391Z,5.47
2023-05-12T19:12:11.154Z,6.07
2023-05-12T19:14:13.452Z,5.55
2023-05-12T19:16:16.092Z,6.07
2023-05-12T19:18:18.412Z,6.47
2023-05-12T19:20:20.777Z,5.93
2023-05-12T19:22:24.833Z,6.53
2023-05-12T19:24:27.151Z,5.28
2023-05-12T19:26:29.449Z,7.15
2023-05-12T19:28:31.627Z,6.20
2023-05-12T19:30:34.985Z,6.53
2023-05-12T19:32:37.415Z,6.22
2023-05-12T19:34:39.756Z,6.88
2023-05-12T19:36:42.224Z,7.15
2023-05-12T19:38:44.525Z,6.93
2023-05-12T19:40:46.770Z,7.07
2023-05-12T19:42:50.394Z,6.38
2023-05-12T19:44:52.600Z,7.57
2023-05-12T19:46:56.617Z,6.55
2023-05-12T19:48:58.785Z,8.43
2023-05-12T19:51:00.978Z,6.80
2023-05-12T19:53:03.188Z,7.50
2023-05-12T19:55:06.532Z,6.85
2023-05-12T19:57:08.776Z,7.93
2023-05-12T19:59:11.016Z,7.90
2023-05-12T20:01:13.336Z,7.75
2023-05-12T20:03:16.082Z,10.05
2023-05-12T20:07:21.146Z,8.10
2023-05-12T20:09:24.880Z,8.68
2023-05-12T20:11:27.348Z,8.27
2023-05-12T20:13:29.645Z,7.97
2023-05-12T20:15:32.294Z,10.18
2023-05-12T20:17:34.629Z,8.00
2023-05-12T20:19:37.077Z,7.85
2023-05-12T20:21:39.356Z,8.77
2023-05-12T20:23:42.253Z,8.60
2023-05-12T20:25:44.512Z,8.35
2023-05-12T20:27:46.820Z,7.50
2023-05-12T20:29:49.514Z,8.55
2023-05-12T20:33:55.166Z,8.07
2023-05-12T20:35:57.356Z,7.97
2023-05-12T20:37:59.775Z,7.68
2023-05-12T20:40:02.201Z,7.55
2023-05-12T20:42:04.977Z,7.60
2023-05-12T20:46:10.157Z,8.02
2023-05-12T20:48:12.618Z,8.65
2023-05-12T20:50:15.074Z,7.63
2023-05-12T20:52:17.406Z,7.03
2023-05-12T20:54:19.625Z,7.22
2023-05-12T20:56:26.477Z,6.82
2023-05-12T20:58:28.801Z,7.15
2023-05-12T21:00:31.054Z,7.70
2023-05-12T21:02:33.294Z,7.70
2023-05-12T21:04:35.555Z,7.53
2023-05-12T21:06:37.773Z,7.90
2023-05-12T21:08:40.028Z,7.53
2023-05-12T21:10:42.236Z,7.80
2023-05-12T21:12:44.591Z,7.07
2023-05-12T21:14:46.809Z,6.93
2023-05-12T21:16:49.034Z,7.30
2023-05-12T21:18:51.311Z,7.22
2023-05-12T21:20:53.636Z,7.97
2023-05-12T21:22:57.046Z,7.00
2023-05-12T21:24:59.174Z,7.03
2023-05-12T21:27:05.146Z,7.38
2023-05-12T21:29:07.469Z,7.72
2023-05-12T21:31:09.841Z,7.57
2023-05-12T21:33:12.125Z,7.80
2023-05-12T21:35:14.401Z,7.47
2023-05-12T21:37:16.971Z,8.55
2023-05-12T21:39:19.190Z,7.40
2023-05-12T21:41:21.816Z,9.43
2023-05-12T21:45:26.679Z,7.20
2023-05-12T21:47:29.060Z,8.40
2023-05-12T21:49:31.240Z,8.07
2023-05-12T21:51:33.499Z,8.80
2023-05-12T21:53:35.651Z,8.57
2023-05-12T21:55:37.858Z,7.97
2023-05-12T21:57:39.983Z,8.27
2023-05-12T21:59:42.214Z,8.18
2023-05-12T22:01:44.432Z,7.97
2023-05-12T22:03:46.871Z,8.10
2023-05-12T22:05:49.169Z,7.30
2023-05-12T22:07:51.471Z,7.47
2023-05-12T22:09:53.761Z,7.25
2023-05-12T22:11:56.022Z,7.60
2023-05-12T22:13:58.141Z,8.35
2023-05-12T22:16:00.387Z,7.35
2023-05-12T22:18:03.677Z,7.03
2023-05-12T22:20:06.231Z,7.28
2023-05-12T22:22:08.504Z,7.57
2023-05-12T22:24:11.255Z,8.40
2023-05-12T22:28:16.069Z,6.90
2023-05-12T22:32:21.189Z,7.82
2023-05-12T22:34:23.358Z,8.07
2023-05-12T22:36:25.684Z,9.23
2023-05-12T22:38:28.134Z,8.18
2023-05-12T22:40:30.710Z,7.20
2023-05-12T22:42:32.911Z,10.15
2023-05-12T22:44:35.219Z,8.15
2023-05-12T22:46:37.424Z,9.02
2023-05-12T22:48:39.865Z,7.55
2023-05-12T22:50:42.030Z,7.80
2023-05-12T22:52:44.259Z,7.53
2023-05-12T22:54:46.549Z,7.40
2023-05-12T22:56:48.708Z,6.90
2023-05-12T22:58:50.926Z,7.43
2023-05-12T23:00:53.179Z,8.15
2023-05-12T23:02:55.706Z,7.45
2023-05-12T23:04:57.897Z,8.48
2023-05-12T23:07:00.615Z,8.82
2023-05-12T23:11:05.014Z,9.73
2023-05-12T23:13:07.555Z,8.85
2023-05-12T23:15:10.137Z,8.52
2023-05-12T23:17:12.327Z,8.45
2023-05-12T23:19:14.871Z,9.05
2023-05-12T23:21:17.170Z,9.55
2023-05-12T23:23:19.373Z,10.05
2023-05-12T23:25:21.592Z,9.63
2023-05-12T23:27:23.754Z,8.82
2023-05-12T23:29:25.997Z,10.52
2023-05-12T23:31:28.188Z,10.43
2023-05-12T23:33:30.939Z,9.50
2023-05-12T23:35:33.157Z,8.60
2023-05-12T23:37:35.342Z,9.15
2023-05-12T23:39:37.487Z,8.90
2023-05-12T23:41:39.599Z,10.25
2023-05-12T23:43:42.300Z,9.25
2023-05-12T23:47:46.700Z,9.40
2023-05-12T23:49:48.987Z,9.15
2023-05-12T23:51:51.237Z,10.32
2023-05-12T23:53:53.420Z,10.80
2023-05-12T23:55:55.658Z,10.38
2023-05-12T23:57:57.903Z,10.73
